General Aviation Weather

Text Reports

Enter one or more of the following location identifiers separated by a space:

Zip Code, Four-Character ICAO or Three-Character IATA airport codes.

METAR - Aviation Routine Weather Report
KAZE - Hazlehurst, Georgia
Updated at 7:35 PM GMT on September 01, 2014 (3:35 PM EDT):
METAR KAZE 011935Z AUTO 20003KT 10SM CLR 36/22 A3004 RMK AO2 LTG DSNT SW T03560221
TAF - Terminal Area Forecast
KAZE - Hazlehurst, Georgia
Updated at 7:35 PM GMT on September 01, 2014 (3:35 PM EDT):
No TAF is currently available for this location.
Decoded:
No decoded TAF is available.
PIREP - Pilot Weather Report
KAZE - Hazlehurst, Georgia
Updated at 7:35 PM GMT on September 01, 2014 (3:35 PM EDT):
No PIREP is currently available for this location.
AIRMET - Airmens Meteorological Information
KAZE - Hazlehurst, Georgia
Updated at 7:35 PM GMT on September 01, 2014 (3:35 PM EDT):
No AIRMET is currently available for this location.
SIGMET - Significant Meteorological Information
KAZE - Hazlehurst, Georgia
Updated at 7:35 PM GMT on September 01, 2014 (3:35 PM EDT):
No SIGMET is currently available for this location.
NOTAM - Notice to Airmen
KAZE - Hazlehurst, Georgia
Updated at 7:35 PM GMT on September 01, 2014 (3:35 PM EDT):
No NOTAM is currently available for this location.
Forecast Area
KAZE - Hazlehurst, Georgia
Updated at 7:35 PM GMT on September 01, 2014 (3:35 PM EDT):
No NOTAM is currently available for this location.
Aviation Weather Maps